sensor_id;sensor_type;location;lat;lon;timestamp;P1;durP1;ratioP1;P2;durP2;ratioP2
68310;SDS011;55157;51.036;17.058;2023-05-07T00:01:00;8.23;;;5.82;;
68310;SDS011;55157;51.036;17.058;2023-05-07T00:03:26;10.15;;;5.93;;
68310;SDS011;55157;51.036;17.058;2023-05-07T00:05:51;8.10;;;5.70;;
68310;SDS011;55157;51.036;17.058;2023-05-07T00:08:17;11.07;;;6.05;;
68310;SDS011;55157;51.036;17.058;2023-05-07T00:10:42;10.60;;;5.60;;
68310;SDS011;55157;51.036;17.058;2023-05-07T00:13:07;9.18;;;6.10;;
68310;SDS011;55157;51.036;17.058;2023-05-07T00:15:33;9.93;;;6.30;;
68310;SDS011;55157;51.036;17.058;2023-05-07T00:17:58;7.40;;;5.45;;
68310;SDS011;55157;51.036;17.058;2023-05-07T00:20:25;10.27;;;5.60;;
68310;SDS011;55157;51.036;17.058;2023-05-07T00:22:50;11.15;;;5.43;;
68310;SDS011;55157;51.036;17.058;2023-05-07T00:25:15;11.20;;;6.30;;
68310;SDS011;55157;51.036;17.058;2023-05-07T00:27:40;8.25;;;5.05;;
68310;SDS011;55157;51.036;17.058;2023-05-07T00:30:06;6.30;;;4.95;;
68310;SDS011;55157;51.036;17.058;2023-05-07T00:32:31;9.70;;;5.38;;
68310;SDS011;55157;51.036;17.058;2023-05-07T00:34:57;8.07;;;5.22;;
68310;SDS011;55157;51.036;17.058;2023-05-07T00:37:23;8.65;;;5.40;;
68310;SDS011;55157;51.036;17.058;2023-05-07T00:39:48;7.25;;;5.15;;
68310;SDS011;55157;51.036;17.058;2023-05-07T00:42:14;10.68;;;6.25;;
68310;SDS011;55157;51.036;17.058;2023-05-07T00:44:39;9.65;;;5.03;;
68310;SDS011;55157;51.036;17.058;2023-05-07T00:47:04;10.48;;;6.15;;
68310;SDS011;55157;51.036;17.058;2023-05-07T00:49:32;7.38;;;5.57;;
68310;SDS011;55157;51.036;17.058;2023-05-07T00:52:00;8.40;;;5.82;;
68310;SDS011;55157;51.036;17.058;2023-05-07T00:54:27;7.97;;;5.03;;
68310;SDS011;55157;51.036;17.058;2023-05-07T00:56:53;7.75;;;5.15;;
68310;SDS011;55157;51.036;17.058;2023-05-07T00:59:19;9.95;;;5.63;;
68310;SDS011;55157;51.036;17.058;2023-05-07T01:01:44;10.07;;;5.07;;
68310;SDS011;55157;51.036;17.058;2023-05-07T01:04:09;6.93;;;5.25;;
68310;SDS011;55157;51.036;17.058;2023-05-07T01:06:35;6.63;;;5.13;;
68310;SDS011;55157;51.036;17.058;2023-05-07T01:09:00;7.15;;;5.22;;
68310;SDS011;55157;51.036;17.058;2023-05-07T01:11:27;10.15;;;5.22;;
68310;SDS011;55157;51.036;17.058;2023-05-07T01:13:52;6.72;;;5.55;;
68310;SDS011;55157;51.036;17.058;2023-05-07T01:16:17;9.45;;;4.75;;
68310;SDS011;55157;51.036;17.058;2023-05-07T01:18:43;6.45;;;4.40;;
68310;SDS011;55157;51.036;17.058;2023-05-07T01:21:08;6.82;;;4.63;;
68310;SDS011;55157;51.036;17.058;2023-05-07T01:23:37;5.95;;;4.82;;
68310;SDS011;55157;51.036;17.058;2023-05-07T01:26:03;8.27;;;5.10;;
68310;SDS011;55157;51.036;17.058;2023-05-07T01:28:28;7.00;;;4.95;;
68310;SDS011;55157;51.036;17.058;2023-05-07T01:30:54;11.40;;;6.10;;
68310;SDS011;55157;51.036;17.058;2023-05-07T01:33:20;7.57;;;5.53;;
68310;SDS011;55157;51.036;17.058;2023-05-07T01:35:46;6.25;;;5.32;;
68310;SDS011;55157;51.036;17.058;2023-05-07T01:38:12;7.10;;;5.63;;
68310;SDS011;55157;51.036;17.058;2023-05-07T01:40:39;8.10;;;5.93;;
68310;SDS011;55157;51.036;17.058;2023-05-07T01:43:05;6.53;;;5.45;;
68310;SDS011;55157;51.036;17.058;2023-05-07T01:45:31;9.00;;;5.65;;
68310;SDS011;55157;51.036;17.058;2023-05-07T01:47:56;8.45;;;6.25;;
68310;SDS011;55157;51.036;17.058;2023-05-07T01:50:22;8.00;;;5.10;;
68310;SDS011;55157;51.036;17.058;2023-05-07T01:52:49;6.65;;;5.22;;
68310;SDS011;55157;51.036;17.058;2023-05-07T01:55:15;10.20;;;5.03;;
68310;SDS011;55157;51.036;17.058;2023-05-07T01:57:41;8.00;;;5.03;;
68310;SDS011;55157;51.036;17.058;2023-05-07T02:00:07;6.78;;;5.43;;
68310;SDS011;55157;51.036;17.058;2023-05-07T02:02:32;11.15;;;5.43;;
68310;SDS011;55157;51.036;17.058;2023-05-07T02:04:58;9.45;;;5.03;;
68310;SDS011;55157;51.036;17.058;2023-05-07T02:07:23;9.82;;;4.95;;
68310;SDS011;55157;51.036;17.058;2023-05-07T02:09:48;9.13;;;5.35;;
68310;SDS011;55157;51.036;17.058;2023-05-07T02:12:14;6.60;;;5.38;;
68310;SDS011;55157;51.036;17.058;2023-05-07T02:14:40;9.25;;;5.70;;
68310;SDS011;55157;51.036;17.058;2023-05-07T02:17:06;11.77;;;5.43;;
68310;SDS011;55157;51.036;17.058;2023-05-07T02:19:31;11.15;;;5.70;;
68310;SDS011;55157;51.036;17.058;2023-05-07T02:21:56;8.90;;;5.88;;
68310;SDS011;55157;51.036;17.058;2023-05-07T02:24:21;7.22;;;5.57;;
68310;SDS011;55157;51.036;17.058;2023-05-07T02:26:46;12.07;;;6.35;;
68310;SDS011;55157;51.036;17.058;2023-05-07T02:29:12;10.82;;;6.22;;
68310;SDS011;55157;51.036;17.058;2023-05-07T02:31:38;8.30;;;5.13;;
68310;SDS011;55157;51.036;17.058;2023-05-07T02:34:04;9.90;;;5.70;;
68310;SDS011;55157;51.036;17.058;2023-05-07T02:36:29;8.20;;;5.43;;
68310;SDS011;55157;51.036;17.058;2023-05-07T02:38:54;6.07;;;4.63;;
68310;SDS011;55157;51.036;17.058;2023-05-07T02:41:20;7.25;;;5.20;;
68310;SDS011;55157;51.036;17.058;2023-05-07T02:43:45;8.60;;;4.95;;
68310;SDS011;55157;51.036;17.058;2023-05-07T02:46:10;8.73;;;6.22;;
68310;SDS011;55157;51.036;17.058;2023-05-07T02:48:37;6.85;;;4.68;;
68310;SDS011;55157;51.036;17.058;2023-05-07T02:51:02;9.07;;;5.57;;
68310;SDS011;55157;51.036;17.058;2023-05-07T02:53:28;6.72;;;4.88;;
68310;SDS011;55157;51.036;17.058;2023-05-07T02:55:53;8.07;;;4.93;;
68310;SDS011;55157;51.036;17.058;2023-05-07T02:58:18;8.90;;;5.32;;
68310;SDS011;55157;51.036;17.058;2023-05-07T03:00:44;7.95;;;5.55;;
68310;SDS011;55157;51.036;17.058;2023-05-07T03:03:09;8.75;;;5.70;;
68310;SDS011;55157;51.036;17.058;2023-05-07T03:05:36;7.55;;;5.78;;
68310;SDS011;55157;51.036;17.058;2023-05-07T03:08:01;7.13;;;5.22;;
68310;SDS011;55157;51.036;17.058;2023-05-07T03:10:26;11.50;;;5.65;;
68310;SDS011;55157;51.036;17.058;2023-05-07T03:12:51;13.18;;;6.30;;
68310;SDS011;55157;51.036;17.058;2023-05-07T03:15:17;9.65;;;5.35;;
68310;SDS011;55157;51.036;17.058;2023-05-07T03:17:42;7.53;;;5.38;;
68310;SDS011;55157;51.036;17.058;2023-05-07T03:20:08;7.00;;;5.10;;
68310;SDS011;55157;51.036;17.058;2023-05-07T03:22:34;7.80;;;4.90;;
68310;SDS011;55157;51.036;17.058;2023-05-07T03:25:00;9.40;;;5.07;;
68310;SDS011;55157;51.036;17.058;2023-05-07T03:27:25;9.75;;;5.70;;
68310;SDS011;55157;51.036;17.058;2023-05-07T03:29:50;17.00;;;5.80;;
68310;SDS011;55157;51.036;17.058;2023-05-07T03:32:15;6.95;;;4.60;;
68310;SDS011;55157;51.036;17.058;2023-05-07T03:34:41;5.95;;;4.97;;
68310;SDS011;55157;51.036;17.058;2023-05-07T03:37:06;8.30;;;4.90;;
68310;SDS011;55157;51.036;17.058;2023-05-07T03:39:33;9.15;;;5.20;;
68310;SDS011;55157;51.036;17.058;2023-05-07T03:41:58;6.80;;;5.07;;
68310;SDS011;55157;51.036;17.058;2023-05-07T03:44:23;12.90;;;6.00;;
68310;SDS011;55157;51.036;17.058;2023-05-07T03:46:49;9.00;;;5.88;;
68310;SDS011;55157;51.036;17.058;2023-05-07T03:49:14;7.97;;;5.30;;
68310;SDS011;55157;51.036;17.058;2023-05-07T03:51:39;5.75;;;4.80;;
68310;SDS011;55157;51.036;17.058;2023-05-07T03:54:04;8.30;;;4.90;;
68310;SDS011;55157;51.036;17.058;2023-05-07T03:56:31;7.63;;;4.97;;
68310;SDS011;55157;51.036;17.058;2023-05-07T03:58:56;8.05;;;4.88;;
68310;SDS011;55157;51.036;17.058;2023-05-07T04:01:22;6.30;;;4.63;;
68310;SDS011;55157;51.036;17.058;2023-05-07T04:03:47;7.32;;;5.10;;
68310;SDS011;55157;51.036;17.058;2023-05-07T04:06:12;7.10;;;4.90;;
68310;SDS011;55157;51.036;17.058;2023-05-07T04:08:37;7.47;;;5.07;;
68310;SDS011;55157;51.036;17.058;2023-05-07T04:11:03;11.52;;;4.65;;
68310;SDS011;55157;51.036;17.058;2023-05-07T04:13:30;5.68;;;4.68;;
68310;SDS011;55157;51.036;17.058;2023-05-07T04:15:55;6.45;;;4.88;;
68310;SDS011;55157;51.036;17.058;2023-05-07T04:18:21;15.65;;;5.28;;
68310;SDS011;55157;51.036;17.058;2023-05-07T04:20:46;12.88;;;4.82;;
68310;SDS011;55157;51.036;17.058;2023-05-07T04:23:12;7.75;;;5.13;;
68310;SDS011;55157;51.036;17.058;2023-05-07T04:25:37;6.68;;;4.78;;
68310;SDS011;55157;51.036;17.058;2023-05-07T04:28:02;7.80;;;4.95;;
68310;SDS011;55157;51.036;17.058;2023-05-07T04:30:29;9.27;;;4.72;;
68310;SDS011;55157;51.036;17.058;2023-05-07T04:32:54;8.55;;;4.97;;
68310;SDS011;55157;51.036;17.058;2023-05-07T04:35:19;6.72;;;4.72;;
68310;SDS011;55157;51.036;17.058;2023-05-07T04:37:45;6.18;;;4.25;;
68310;SDS011;55157;51.036;17.058;2023-05-07T04:40:10;5.18;;;3.95;;
68310;SDS011;55157;51.036;17.058;2023-05-07T04:42:35;6.70;;;4.40;;
68310;SDS011;55157;51.036;17.058;2023-05-07T04:45:01;5.93;;;4.03;;
68310;SDS011;55157;51.036;17.058;2023-05-07T04:47:27;6.93;;;4.00;;
68310;SDS011;55157;51.036;17.058;2023-05-07T04:49:53;5.72;;;3.90;;
68310;SDS011;55157;51.036;17.058;2023-05-07T04:52:18;5.78;;;3.97;;
68310;SDS011;55157;51.036;17.058;2023-05-07T04:54:43;10.73;;;4.50;;
68310;SDS011;55157;51.036;17.058;2023-05-07T04:57:09;10.00;;;3.83;;
68310;SDS011;55157;51.036;17.058;2023-05-07T04:59:34;6.78;;;4.07;;
68310;SDS011;55157;51.036;17.058;2023-05-07T05:01:59;7.53;;;4.30;;
68310;SDS011;55157;51.036;17.058;2023-05-07T05:04:26;5.72;;;3.63;;
68310;SDS011;55157;51.036;17.058;2023-05-07T05:06:51;8.10;;;4.00;;
68310;SDS011;55157;51.036;17.058;2023-05-07T05:09:16;5.28;;;3.50;;
68310;SDS011;55157;51.036;17.058;2023-05-07T05:11:41;7.25;;;3.95;;
68310;SDS011;55157;51.036;17.058;2023-05-07T05:14:07;4.70;;;3.47;;
68310;SDS011;55157;51.036;17.058;2023-05-07T05:16:32;5.30;;;2.70;;
68310;SDS011;55157;51.036;17.058;2023-05-07T05:18:57;7.07;;;3.20;;
68310;SDS011;55157;51.036;17.058;2023-05-07T05:21:24;6.65;;;3.33;;
68310;SDS011;55157;51.036;17.058;2023-05-07T05:23:49;4.50;;;2.88;;
68310;SDS011;55157;51.036;17.058;2023-05-07T05:26:14;4.10;;;2.78;;
68310;SDS011;55157;51.036;17.058;2023-05-07T05:28:40;24.73;;;3.25;;
68310;SDS011;55157;51.036;17.058;2023-05-07T05:31:05;4.70;;;2.85;;
68310;SDS011;55157;51.036;17.058;2023-05-07T05:33:30;6.97;;;3.50;;
68310;SDS011;55157;51.036;17.058;2023-05-07T05:35:56;3.90;;;3.30;;
68310;SDS011;55157;51.036;17.058;2023-05-07T05:38:22;5.80;;;2.85;;
68310;SDS011;55157;51.036;17.058;2023-05-07T05:40:48;5.28;;;3.20;;
68310;SDS011;55157;51.036;17.058;2023-05-07T05:43:13;5.43;;;3.15;;
68310;SDS011;55157;51.036;17.058;2023-05-07T05:45:38;7.47;;;3.47;;
68310;SDS011;55157;51.036;17.058;2023-05-07T05:48:04;5.85;;;3.33;;
68310;SDS011;55157;51.036;17.058;2023-05-07T05:50:29;4.22;;;3.42;;
68310;SDS011;55157;51.036;17.058;2023-05-07T05:52:54;9.00;;;3.85;;
68310;SDS011;55157;51.036;17.058;2023-05-07T05:55:21;5.38;;;3.83;;
68310;SDS011;55157;51.036;17.058;2023-05-07T05:57:46;4.07;;;3.13;;
68310;SDS011;55157;51.036;17.058;2023-05-07T06:00:12;3.90;;;3.10;;
68310;SDS011;55157;51.036;17.058;2023-05-07T06:02:37;4.28;;;3.85;;
68310;SDS011;55157;51.036;17.058;2023-05-07T06:05:03;8.75;;;3.30;;
68310;SDS011;55157;51.036;17.058;2023-05-07T06:07:28;4.95;;;3.33;;
68310;SDS011;55157;51.036;17.058;2023-05-07T06:09:53;7.25;;;3.95;;
68310;SDS011;55157;51.036;17.058;2023-05-07T06:12:20;4.22;;;3.30;;
68310;SDS011;55157;51.036;17.058;2023-05-07T06:14:45;6.43;;;3.30;;
68310;SDS011;55157;51.036;17.058;2023-05-07T06:17:10;5.70;;;3.60;;
68310;SDS011;55157;51.036;17.058;2023-05-07T06:19:36;6.75;;;4.65;;
68310;SDS011;55157;51.036;17.058;2023-05-07T06:22:01;6.00;;;3.35;;
68310;SDS011;55157;51.036;17.058;2023-05-07T06:24:26;6.15;;;3.47;;
68310;SDS011;55157;51.036;17.058;2023-05-07T06:26:51;5.25;;;3.35;;
68310;SDS011;55157;51.036;17.058;2023-05-07T06:29:18;3.97;;;3.47;;
68310;SDS011;55157;51.036;17.058;2023-05-07T06:31:43;4.80;;;3.30;;
68310;SDS011;55157;51.036;17.058;2023-05-07T06:34:09;3.88;;;3.20;;
68310;SDS011;55157;51.036;17.058;2023-05-07T06:36:34;4.80;;;3.22;;
68310;SDS011;55157;51.036;17.058;2023-05-07T06:38:59;3.55;;;2.42;;
68310;SDS011;55157;51.036;17.058;2023-05-07T06:41:25;4.97;;;3.08;;
68310;SDS011;55157;51.036;17.058;2023-05-07T06:43:50;4.78;;;2.80;;
68310;SDS011;55157;51.036;17.058;2023-05-07T06:46:17;3.22;;;2.28;;
68310;SDS011;55157;51.036;17.058;2023-05-07T06:48:42;5.47;;;2.55;;
68310;SDS011;55157;51.036;17.058;2023-05-07T06:51:07;4.10;;;3.10;;
68310;SDS011;55157;51.036;17.058;2023-05-07T06:53:32;3.55;;;2.80;;
68310;SDS011;55157;51.036;17.058;2023-05-07T06:56:00;7.07;;;3.35;;
68310;SDS011;55157;51.036;17.058;2023-05-07T06:58:25;5.95;;;3.53;;
68310;SDS011;55157;51.036;17.058;2023-05-07T07:00:50;5.78;;;3.60;;
68310;SDS011;55157;51.036;17.058;2023-05-07T07:03:17;5.72;;;4.70;;
68310;SDS011;55157;51.036;17.058;2023-05-07T07:05:42;5.63;;;3.70;;
68310;SDS011;55157;51.036;17.058;2023-05-07T07:08:08;5.07;;;3.50;;
68310;SDS011;55157;51.036;17.058;2023-05-07T07:10:33;4.93;;;3.75;;
68310;SDS011;55157;51.036;17.058;2023-05-07T07:12:58;5.40;;;3.70;;
68310;SDS011;55157;51.036;17.058;2023-05-07T07:15:23;8.38;;;4.22;;
68310;SDS011;55157;51.036;17.058;2023-05-07T07:17:49;5.80;;;3.92;;
68310;SDS011;55157;51.036;17.058;2023-05-07T07:20:15;5.60;;;3.38;;
68310;SDS011;55157;51.036;17.058;2023-05-07T07:22:41;4.20;;;2.88;;
68310;SDS011;55157;51.036;17.058;2023-05-07T07:25:06;4.75;;;2.95;;
68310;SDS011;55157;51.036;17.058;2023-05-07T07:27:31;4.80;;;3.13;;
68310;SDS011;55157;51.036;17.058;2023-05-07T07:29:57;3.58;;;3.00;;
68310;SDS011;55157;51.036;17.058;2023-05-07T07:32:22;4.53;;;3.13;;
68310;SDS011;55157;51.036;17.058;2023-05-07T07:34:47;4.03;;;2.90;;
68310;SDS011;55157;51.036;17.058;2023-05-07T07:37:14;5.05;;;2.90;;
68310;SDS011;55157;51.036;17.058;2023-05-07T07:39:39;3.30;;;2.45;;
68310;SDS011;55157;51.036;17.058;2023-05-07T07:42:04;3.00;;;2.70;;
68310;SDS011;55157;51.036;17.058;2023-05-07T07:44:30;5.40;;;3.95;;
68310;SDS011;55157;51.036;17.058;2023-05-07T07:46:55;3.88;;;2.53;;
68310;SDS011;55157;51.036;17.058;2023-05-07T07:49:20;4.95;;;2.80;;
68310;SDS011;55157;51.036;17.058;2023-05-07T07:51:45;3.80;;;3.00;;
68310;SDS011;55157;51.036;17.058;2023-05-07T07:54:12;4.95;;;3.15;;
68310;SDS011;55157;51.036;17.058;2023-05-07T07:56:37;4.40;;;2.72;;
68310;SDS011;55157;51.036;17.058;2023-05-07T07:59:02;3.83;;;3.35;;
68310;SDS011;55157;51.036;17.058;2023-05-07T08:01:29;7.47;;;3.13;;
68310;SDS011;55157;51.036;17.058;2023-05-07T08:03:54;5.03;;;2.85;;
68310;SDS011;55157;51.036;17.058;2023-05-07T08:06:19;9.82;;;4.80;;
68310;SDS011;55157;51.036;17.058;2023-05-07T08:08:45;4.78;;;3.50;;
68310;SDS011;55157;51.036;17.058;2023-05-07T08:11:11;13.48;;;3.72;;
68310;SDS011;55157;51.036;17.058;2023-05-07T08:13:36;4.10;;;2.95;;
68310;SDS011;55157;51.036;17.058;2023-05-07T08:16:03;4.30;;;3.80;;
68310;SDS011;55157;51.036;17.058;2023-05-07T08:18:28;5.15;;;3.78;;
68310;SDS011;55157;51.036;17.058;2023-05-07T08:20:54;9.48;;;4.22;;
68310;SDS011;55157;51.036;17.058;2023-05-07T08:23:19;7.53;;;4.43;;
68310;SDS011;55157;51.036;17.058;2023-05-07T08:25:44;9.70;;;4.80;;
68310;SDS011;55157;51.036;17.058;2023-05-07T08:28:11;5.43;;;4.30;;
68310;SDS011;55157;51.036;17.058;2023-05-07T08:30:36;6.82;;;4.88;;
68310;SDS011;55157;51.036;17.058;2023-05-07T08:33:01;7.07;;;5.05;;
68310;SDS011;55157;51.036;17.058;2023-05-07T08:35:27;6.88;;;4.68;;
68310;SDS011;55157;51.036;17.058;2023-05-07T08:37:52;5.82;;;4.85;;
68310;SDS011;55157;51.036;17.058;2023-05-07T08:40:17;5.55;;;4.40;;
68310;SDS011;55157;51.036;17.058;2023-05-07T08:42:42;5.10;;;3.92;;
68310;SDS011;55157;51.036;17.058;2023-05-07T08:45:10;8.23;;;4.88;;
68310;SDS011;55157;51.036;17.058;2023-05-07T08:47:39;5.63;;;4.13;;
68310;SDS011;55157;51.036;17.058;2023-05-07T08:50:05;14.25;;;9.98;;
68310;SDS011;55157;51.036;17.058;2023-05-07T08:52:31;15.55;;;7.38;;
68310;SDS011;55157;51.036;17.058;2023-05-07T08:54:56;16.92;;;8.20;;
68310;SDS011;55157;51.036;17.058;2023-05-07T08:57:21;10.45;;;5.88;;
68310;SDS011;55157;51.036;17.058;2023-05-07T08:59:47;8.07;;;5.32;;
68310;SDS011;55157;51.036;17.058;2023-05-07T09:02:13;5.28;;;4.65;;
68310;SDS011;55157;51.036;17.058;2023-05-07T09:04:39;7.15;;;5.32;;
68310;SDS011;55157;51.036;17.058;2023-05-07T09:07:04;10.02;;;5.60;;
68310;SDS011;55157;51.036;17.058;2023-05-07T09:09:29;11.00;;;5.55;;
68310;SDS011;55157;51.036;17.058;2023-05-07T09:11:57;7.30;;;5.00;;
68310;SDS011;55157;51.036;17.058;2023-05-07T09:14:23;5.55;;;4.65;;
68310;SDS011;55157;51.036;17.058;2023-05-07T09:16:48;9.50;;;5.10;;
68310;SDS011;55157;51.036;17.058;2023-05-07T09:19:15;7.45;;;4.85;;
68310;SDS011;55157;51.036;17.058;2023-05-07T09:21:40;8.48;;;4.80;;
68310;SDS011;55157;51.036;17.058;2023-05-07T09:24:06;8.70;;;4.63;;
68310;SDS011;55157;51.036;17.058;2023-05-07T09:26:31;6.32;;;5.07;;
68310;SDS011;55157;51.036;17.058;2023-05-07T09:28:56;8.93;;;4.82;;
68310;SDS011;55157;51.036;17.058;2023-05-07T09:31:21;5.95;;;4.88;;
68310;SDS011;55157;51.036;17.058;2023-05-07T09:33:47;6.15;;;4.03;;
68310;SDS011;55157;51.036;17.058;2023-05-07T09:36:13;5.35;;;4.20;;
68310;SDS011;55157;51.036;17.058;2023-05-07T09:38:39;5.97;;;3.92;;
68310;SDS011;55157;51.036;17.058;2023-05-07T09:41:05;6.68;;;4.35;;
68310;SDS011;55157;51.036;17.058;2023-05-07T09:43:33;6.75;;;4.32;;
68310;SDS011;55157;51.036;17.058;2023-05-07T09:45:59;4.53;;;3.55;;
68310;SDS011;55157;51.036;17.058;2023-05-07T09:48:27;5.03;;;4.07;;
68310;SDS011;55157;51.036;17.058;2023-05-07T09:50:55;5.45;;;3.40;;
68310;SDS011;55157;51.036;17.058;2023-05-07T09:53:21;4.32;;;3.55;;
68310;SDS011;55157;51.036;17.058;2023-05-07T09:55:47;7.68;;;4.00;;
68310;SDS011;55157;51.036;17.058;2023-05-07T09:58:13;7.00;;;4.18;;
68310;SDS011;55157;51.036;17.058;2023-05-07T10:00:39;8.07;;;4.30;;
68310;SDS011;55157;51.036;17.058;2023-05-07T10:03:06;6.07;;;4.45;;
68310;SDS011;55157;51.036;17.058;2023-05-07T10:05:32;10.27;;;4.80;;
68310;SDS011;55157;51.036;17.058;2023-05-07T10:07:58;6.05;;;4.07;;
68310;SDS011;55157;51.036;17.058;2023-05-07T10:10:25;4.53;;;4.05;;
68310;SDS011;55157;51.036;17.058;2023-05-07T10:12:51;6.45;;;4.70;;
68310;SDS011;55157;51.036;17.058;2023-05-07T10:15:16;6.32;;;4.63;;
68310;SDS011;55157;51.036;17.058;2023-05-07T10:17:42;5.55;;;3.90;;
68310;SDS011;55157;51.036;17.058;2023-05-07T10:20:07;5.05;;;3.78;;
68310;SDS011;55157;51.036;17.058;2023-05-07T10:22:36;4.80;;;3.65;;
68310;SDS011;55157;51.036;17.058;2023-05-07T10:25:02;4.95;;;3.50;;
68310;SDS011;55157;51.036;17.058;2023-05-07T10:27:30;6.05;;;3.97;;
68310;SDS011;55157;51.036;17.058;2023-05-07T10:30:00;5.35;;;3.25;;
68310;SDS011;55157;51.036;17.058;2023-05-07T10:32:33;3.80;;;3.40;;
68310;SDS011;55157;51.036;17.058;2023-05-07T10:35:02;4.63;;;3.63;;
68310;SDS011;55157;51.036;17.058;2023-05-07T10:37:29;6.18;;;3.78;;
68310;SDS011;55157;51.036;17.058;2023-05-07T10:39:55;6.20;;;3.55;;
68310;SDS011;55157;51.036;17.058;2023-05-07T10:42:20;6.03;;;3.58;;
68310;SDS011;55157;51.036;17.058;2023-05-07T10:44:47;14.40;;;7.10;;
68310;SDS011;55157;51.036;17.058;2023-05-07T10:47:13;6.55;;;3.38;;
68310;SDS011;55157;51.036;17.058;2023-05-07T10:52:20;13.60;;;4.97;;
68310;SDS011;55157;51.036;17.058;2023-05-07T10:54:45;7.60;;;3.97;;
68310;SDS011;55157;51.036;17.058;2023-05-07T10:59:57;4.85;;;3.55;;
68310;SDS011;55157;51.036;17.058;2023-05-07T11:02:22;4.68;;;2.80;;
68310;SDS011;55157;51.036;17.058;2023-05-07T11:04:57;8.70;;;4.00;;
68310;SDS011;55157;51.036;17.058;2023-05-07T11:07:42;11.73;;;4.55;;
68310;SDS011;55157;51.036;17.058;2023-05-07T11:10:18;8.00;;;3.72;;
68310;SDS011;55157;51.036;17.058;2023-05-07T11:12:48;3.97;;;3.22;;
68310;SDS011;55157;51.036;17.058;2023-05-07T11:15:32;5.03;;;3.72;;
68310;SDS011;55157;51.036;17.058;2023-05-07T11:17:58;4.60;;;3.05;;
68310;SDS011;55157;51.036;17.058;2023-05-07T11:23:03;6.75;;;3.80;;
68310;SDS011;55157;51.036;17.058;2023-05-07T11:25:29;8.00;;;4.15;;
68310;SDS011;55157;51.036;17.058;2023-05-07T11:27:54;9.98;;;4.80;;
68310;SDS011;55157;51.036;17.058;2023-05-07T11:30:22;6.00;;;3.63;;
68310;SDS011;55157;51.036;17.058;2023-05-07T11:32:47;10.27;;;4.28;;
68310;SDS011;55157;51.036;17.058;2023-05-07T11:35:13;6.40;;;3.55;;
68310;SDS011;55157;51.036;17.058;2023-05-07T11:37:39;7.20;;;3.78;;
68310;SDS011;55157;51.036;17.058;2023-05-07T11:40:05;4.57;;;3.60;;
68310;SDS011;55157;51.036;17.058;2023-05-07T11:42:32;10.65;;;5.25;;
68310;SDS011;55157;51.036;17.058;2023-05-07T11:44:57;6.90;;;3.95;;
68310;SDS011;55157;51.036;17.058;2023-05-07T11:47:26;7.35;;;3.45;;
68310;SDS011;55157;51.036;17.058;2023-05-07T11:49:54;4.78;;;3.22;;
68310;SDS011;55157;51.036;17.058;2023-05-07T11:52:20;6.35;;;3.55;;
68310;SDS011;55157;51.036;17.058;2023-05-07T11:54:48;8.02;;;3.75;;
68310;SDS011;55157;51.036;17.058;2023-05-07T11:57:14;4.10;;;2.95;;
68310;SDS011;55157;51.036;17.058;2023-05-07T11:59:39;11.27;;;4.70;;
68310;SDS011;55157;51.036;17.058;2023-05-07T12:02:05;8.63;;;3.30;;
68310;SDS011;55157;51.036;17.058;2023-05-07T12:04:34;7.47;;;3.58;;
68310;SDS011;55157;51.036;17.058;2023-05-07T12:07:00;10.98;;;2.88;;
68310;SDS011;55157;51.036;17.058;2023-05-07T12:09:25;6.20;;;3.25;;
68310;SDS011;55157;51.036;17.058;2023-05-07T12:11:51;8.20;;;3.50;;
68310;SDS011;55157;51.036;17.058;2023-05-07T12:14:16;7.80;;;3.13;;
68310;SDS011;55157;51.036;17.058;2023-05-07T12:16:41;7.95;;;3.83;;
68310;SDS011;55157;51.036;17.058;2023-05-07T12:19:07;5.22;;;3.15;;
68310;SDS011;55157;51.036;17.058;2023-05-07T12:21:35;4.70;;;3.20;;
68310;SDS011;55157;51.036;17.058;2023-05-07T12:24:01;4.22;;;3.22;;
68310;SDS011;55157;51.036;17.058;2023-05-07T12:26:26;6.93;;;3.28;;
68310;SDS011;55157;51.036;17.058;2023-05-07T12:28:51;4.53;;;3.22;;
68310;SDS011;55157;51.036;17.058;2023-05-07T12:31:17;5.93;;;3.47;;
68310;SDS011;55157;51.036;17.058;2023-05-07T12:33:43;6.53;;;3.38;;
68310;SDS011;55157;51.036;17.058;2023-05-07T12:36:09;4.53;;;2.88;;
68310;SDS011;55157;51.036;17.058;2023-05-07T12:41:16;4.32;;;3.28;;
68310;SDS011;55157;51.036;17.058;2023-05-07T12:43:43;11.13;;;3.65;;
68310;SDS011;55157;51.036;17.058;2023-05-07T12:46:09;3.67;;;2.97;;
68310;SDS011;55157;51.036;17.058;2023-05-07T12:48:36;4.95;;;3.30;;
68310;SDS011;55157;51.036;17.058;2023-05-07T12:51:01;6.82;;;3.92;;
68310;SDS011;55157;51.036;17.058;2023-05-07T12:53:27;7.05;;;3.50;;
68310;SDS011;55157;51.036;17.058;2023-05-07T12:55:53;5.10;;;3.47;;
68310;SDS011;55157;51.036;17.058;2023-05-07T12:58:20;6.80;;;3.25;;
68310;SDS011;55157;51.036;17.058;2023-05-07T13:00:47;7.60;;;4.03;;
68310;SDS011;55157;51.036;17.058;2023-05-07T13:03:16;4.60;;;3.33;;
68310;SDS011;55157;51.036;17.058;2023-05-07T13:05:49;3.45;;;2.75;;
68310;SDS011;55157;51.036;17.058;2023-05-07T13:08:23;6.95;;;3.05;;
68310;SDS011;55157;51.036;17.058;2023-05-07T13:10:48;4.97;;;3.42;;
68310;SDS011;55157;51.036;17.058;2023-05-07T13:13:13;4.53;;;3.42;;
68310;SDS011;55157;51.036;17.058;2023-05-07T13:15:41;6.32;;;4.38;;
68310;SDS011;55157;51.036;17.058;2023-05-07T13:18:06;7.75;;;3.40;;
68310;SDS011;55157;51.036;17.058;2023-05-07T13:20:31;4.97;;;3.60;;
68310;SDS011;55157;51.036;17.058;2023-05-07T13:22:56;4.75;;;3.35;;
68310;SDS011;55157;51.036;17.058;2023-05-07T13:25:22;7.63;;;4.22;;
68310;SDS011;55157;51.036;17.058;2023-05-07T13:27:47;8.32;;;3.40;;
68310;SDS011;55157;51.036;17.058;2023-05-07T13:30:12;6.75;;;4.28;;
68310;SDS011;55157;51.036;17.058;2023-05-07T13:32:39;7.88;;;4.43;;
68310;SDS011;55157;51.036;17.058;2023-05-07T13:35:05;7.20;;;3.40;;
68310;SDS011;55157;51.036;17.058;2023-05-07T13:37:30;8.90;;;4.85;;
68310;SDS011;55157;51.036;17.058;2023-05-07T13:39:55;10.65;;;5.55;;
68310;SDS011;55157;51.036;17.058;2023-05-07T13:42:21;8.77;;;5.10;;
68310;SDS011;55157;51.036;17.058;2023-05-07T13:44:46;6.18;;;4.47;;
68310;SDS011;55157;51.036;17.058;2023-05-07T13:47:11;5.10;;;3.70;;
68310;SDS011;55157;51.036;17.058;2023-05-07T13:52:22;4.88;;;3.22;;
68310;SDS011;55157;51.036;17.058;2023-05-07T13:54:47;6.10;;;3.95;;
68310;SDS011;55157;51.036;17.058;2023-05-07T13:57:13;3.90;;;3.03;;
68310;SDS011;55157;51.036;17.058;2023-05-07T13:59:38;6.20;;;3.78;;
68310;SDS011;55157;51.036;17.058;2023-05-07T14:02:03;6.75;;;3.70;;
68310;SDS011;55157;51.036;17.058;2023-05-07T14:04:29;4.13;;;3.20;;
68310;SDS011;55157;51.036;17.058;2023-05-07T14:06:55;9.40;;;5.75;;
68310;SDS011;55157;51.036;17.058;2023-05-07T14:09:21;6.35;;;4.00;;
68310;SDS011;55157;51.036;17.058;2023-05-07T14:11:47;15.00;;;4.30;;
68310;SDS011;55157;51.036;17.058;2023-05-07T14:14:12;4.75;;;3.65;;
68310;SDS011;55157;51.036;17.058;2023-05-07T14:16:37;12.75;;;4.13;;
68310;SDS011;55157;51.036;17.058;2023-05-07T14:19:03;10.18;;;3.85;;
68310;SDS011;55157;51.036;17.058;2023-05-07T14:21:28;6.97;;;3.65;;
68310;SDS011;55157;51.036;17.058;2023-05-07T14:23:53;6.78;;;4.03;;
68310;SDS011;55157;51.036;17.058;2023-05-07T14:26:20;12.55;;;4.13;;
68310;SDS011;55157;51.036;17.058;2023-05-07T14:28:45;8.68;;;4.05;;
68310;SDS011;55157;51.036;17.058;2023-05-07T14:31:10;4.57;;;3.03;;
68310;SDS011;55157;51.036;17.058;2023-05-07T14:33:36;5.80;;;3.15;;
68310;SDS011;55157;51.036;17.058;2023-05-07T14:36:01;4.35;;;3.10;;
68310;SDS011;55157;51.036;17.058;2023-05-07T14:38:26;4.63;;;3.50;;